createdAt,value
2019-06-27T00:02:50.929Z,99.90
2019-06-27T00:05:54.238Z,99.90
2019-06-27T00:08:57.528Z,99.90
2019-06-27T00:12:00.853Z,99.90
2019-06-27T00:15:04.430Z,99.90
2019-06-27T00:18:07.746Z,99.90
2019-06-27T00:21:10.932Z,99.90
2019-06-27T00:24:14.235Z,99.90
2019-06-27T00:27:17.632Z,99.90
2019-06-27T00:30:20.967Z,99.90
2019-06-27T00:33:24.255Z,99.90
2019-06-27T00:36:27.490Z,99.90
2019-06-27T00:39:30.738Z,99.90
2019-06-27T00:42:34.039Z,99.90
2019-06-27T00:45:37.342Z,99.90
2019-06-27T00:48:40.814Z,99.90
2019-06-27T00:51:45.322Z,99.90
2019-06-27T00:54:48.628Z,99.90
2019-06-27T00:57:51.862Z,99.90
2019-06-27T01:00:55.156Z,99.90
2019-06-27T01:03:58.201Z,99.90
2019-06-27T01:07:01.337Z,99.90
2019-06-27T01:10:05.119Z,99.90
2019-06-27T01:13:08.345Z,99.90
2019-06-27T01:16:11.644Z,99.90
2019-06-27T01:19:15.114Z,99.90
2019-06-27T01:22:18.332Z,99.90
2019-06-27T01:25:21.409Z,99.90
2019-06-27T01:28:24.704Z,99.90
2019-06-27T01:31:28.174Z,99.90
2019-06-27T01:34:31.492Z,99.90
2019-06-27T01:37:34.839Z,99.90
2019-06-27T01:40:38.085Z,99.90
2019-06-27T01:43:41.542Z,99.90
2019-06-27T01:46:46.561Z,99.90
2019-06-27T01:49:49.947Z,99.90
2019-06-27T01:52:53.212Z,99.90
2019-06-27T01:55:56.442Z,99.90
2019-06-27T01:58:59.503Z,99.90
2019-06-27T02:02:02.826Z,99.90
2019-06-27T02:05:06.403Z,99.90
2019-06-27T02:08:09.620Z,99.90
2019-06-27T02:11:12.791Z,99.90
2019-06-27T02:14:15.998Z,99.90
2019-06-27T02:17:19.320Z,99.90
2019-06-27T02:20:22.585Z,99.90
2019-06-27T02:23:25.789Z,99.90
2019-06-27T02:26:29.063Z,99.90
2019-06-27T02:29:32.277Z,99.90
2019-06-27T02:32:35.700Z,99.90
2019-06-27T02:35:39.074Z,99.90
2019-06-27T02:38:42.401Z,99.90
2019-06-27T02:41:45.661Z,99.90
2019-06-27T02:44:48.872Z,99.90
2019-06-27T02:47:52.050Z,99.90
2019-06-27T02:50:55.354Z,99.90
2019-06-27T02:53:58.399Z,99.90
2019-06-27T02:57:01.629Z,99.90
2019-06-27T03:00:05.023Z,99.90
2019-06-27T03:03:08.533Z,99.90
2019-06-27T03:06:11.834Z,99.90
2019-06-27T03:09:15.030Z,99.90
2019-06-27T03:12:18.424Z,99.90
2019-06-27T03:15:21.521Z,99.90
2019-06-27T03:18:24.616Z,99.90
2019-06-27T03:21:29.112Z,99.90
2019-06-27T03:24:34.058Z,99.90
2019-06-27T03:27:38.392Z,99.90
2019-06-27T03:30:41.794Z,99.90
2019-06-27T03:33:44.885Z,99.90
2019-06-27T03:36:48.089Z,99.90
2019-06-27T03:39:51.314Z,99.90
2019-06-27T03:42:55.498Z,99.90
2019-06-27T03:45:58.731Z,99.90
2019-06-27T03:49:02.128Z,99.90
2019-06-27T03:52:05.387Z,99.90
2019-06-27T03:55:08.611Z,99.90
2019-06-27T03:58:11.984Z,99.90
2019-06-27T04:01:15.193Z,99.90
2019-06-27T04:04:18.421Z,99.90
2019-06-27T04:07:21.569Z,99.90
2019-06-27T04:10:24.896Z,99.90
2019-06-27T04:13:28.357Z,99.90
2019-06-27T04:16:31.243Z,99.90
2019-06-27T04:19:34.053Z,99.90
2019-06-27T04:22:36.965Z,99.90
2019-06-27T04:25:39.781Z,99.90
2019-06-27T04:28:42.685Z,99.90
2019-06-27T04:31:45.888Z,99.90
2019-06-27T04:34:49.446Z,99.90
2019-06-27T04:37:53.722Z,99.90
2019-06-27T04:40:56.840Z,99.90
2019-06-27T04:44:00.106Z,99.90
2019-06-27T04:47:03.204Z,99.90
2019-06-27T04:50:06.547Z,99.90
2019-06-27T04:53:09.690Z,99.90
2019-06-27T04:56:12.892Z,99.90
2019-06-27T04:59:15.973Z,99.90
2019-06-27T05:02:19.089Z,99.90
2019-06-27T05:05:23.213Z,99.90
2019-06-27T05:08:26.389Z,99.90
2019-06-27T05:11:29.473Z,99.90
2019-06-27T05:14:32.796Z,99.90
2019-06-27T05:17:35.666Z,99.90
2019-06-27T05:20:38.485Z,99.90
2019-06-27T05:23:41.349Z,99.90
2019-06-27T05:26:44.238Z,99.90
2019-06-27T05:29:47.016Z,99.90
2019-06-27T05:32:50.025Z,99.90
2019-06-27T05:35:52.864Z,99.90
2019-06-27T05:38:55.649Z,99.90
2019-06-27T05:41:58.436Z,99.90
2019-06-27T05:45:01.223Z,99.90
2019-06-27T05:48:04.102Z,99.90
2019-06-27T05:51:07.021Z,99.90
2019-06-27T05:54:09.800Z,99.90
2019-06-27T05:57:12.576Z,99.90
2019-06-27T06:00:27.730Z,99.90
2019-06-27T06:03:20.397Z,99.90
2019-06-27T06:06:23.204Z,99.90
2019-06-27T06:09:26.020Z,99.90
2019-06-27T06:12:28.964Z,99.90
2019-06-27T06:15:32.988Z,99.90
2019-06-27T06:18:35.798Z,99.90
2019-06-27T06:21:38.581Z,99.90
2019-06-27T06:24:41.377Z,99.90
2019-06-27T06:27:44.285Z,99.90
2019-06-27T06:30:47.121Z,99.90
2019-06-27T06:33:49.912Z,99.90
2019-06-27T06:36:52.692Z,99.90
2019-06-27T06:39:55.584Z,99.90
2019-06-27T06:43:00.625Z,99.90
2019-06-27T06:46:03.693Z,99.90
2019-06-27T06:49:06.566Z,99.90
2019-06-27T06:52:09.492Z,99.90
2019-06-27T06:55:12.401Z,99.90
2019-06-27T06:58:15.329Z,99.90
2019-06-27T07:01:18.101Z,99.90
2019-06-27T07:04:21.020Z,99.90
2019-06-27T07:07:23.858Z,99.90
2019-06-27T07:10:26.630Z,99.90
2019-06-27T07:13:29.510Z,99.90
2019-06-27T07:16:32.337Z,99.90
2019-06-27T07:19:35.210Z,99.90
2019-06-27T07:22:38.054Z,99.90
2019-06-27T07:25:41.892Z,99.90
2019-06-27T07:28:44.969Z,99.90
2019-06-27T07:31:47.897Z,99.90
2019-06-27T07:34:50.799Z,99.90
2019-06-27T07:37:54.707Z,99.90
2019-06-27T07:40:57.488Z,99.90
2019-06-27T07:44:00.400Z,99.90
2019-06-27T07:47:03.828Z,99.90
2019-06-27T07:50:07.417Z,99.90
2019-06-27T07:53:10.652Z,99.90
2019-06-27T07:56:13.996Z,99.90
2019-06-27T07:59:16.878Z,99.90
2019-06-27T08:02:19.686Z,99.90
2019-06-27T08:05:22.506Z,99.90
2019-06-27T08:08:25.308Z,99.90
2019-06-27T08:11:28.189Z,99.90
2019-06-27T08:14:31.025Z,99.90
2019-06-27T08:17:33.844Z,99.90
2019-06-27T08:20:36.658Z,99.90
2019-06-27T08:23:41.911Z,99.90
2019-06-27T08:26:44.216Z,99.90
2019-06-27T08:29:47.332Z,99.90
2019-06-27T08:32:50.283Z,99.90
2019-06-27T08:35:53.065Z,99.90
2019-06-27T08:38:55.852Z,99.90
2019-06-27T08:41:58.677Z,99.90
2019-06-27T08:45:01.468Z,99.90
2019-06-27T08:48:04.436Z,99.90
2019-06-27T08:51:07.253Z,99.90
2019-06-27T08:54:10.937Z,99.90
2019-06-27T08:57:14.808Z,99.90
2019-06-27T09:00:18.986Z,99.90
2019-06-27T09:03:21.864Z,99.90
2019-06-27T09:06:24.685Z,99.90
2019-06-27T09:09:27.518Z,99.90
2019-06-27T09:12:30.329Z,99.90
2019-06-27T09:15:33.187Z,99.90
2019-06-27T09:18:36.041Z,99.90
2019-06-27T09:21:38.906Z,99.90
2019-06-27T09:24:41.811Z,99.90
2019-06-27T09:27:44.590Z,98.50
2019-06-27T09:30:47.365Z,97.30
2019-06-27T09:33:51.372Z,96.60
2019-06-27T09:36:54.168Z,96.50
2019-06-27T09:39:57.062Z,94.90
2019-06-27T09:42:59.837Z,94.50
2019-06-27T09:46:02.621Z,94.30
2019-06-27T09:49:05.507Z,95.00
2019-06-27T09:52:08.420Z,96.30
2019-06-27T09:55:11.917Z,95.80
2019-06-27T09:58:14.812Z,94.80
2019-06-27T10:01:17.731Z,93.20
2019-06-27T10:04:20.561Z,92.80
2019-06-27T10:07:23.380Z,92.20
2019-06-27T10:10:26.481Z,91.10
2019-06-27T10:13:31.463Z,93.00
2019-06-27T10:16:34.502Z,92.50
2019-06-27T10:19:37.733Z,92.10
2019-06-27T10:22:41.026Z,91.80
2019-06-27T10:25:45.317Z,90.30
2019-06-27T10:28:48.437Z,88.60
2019-06-27T10:31:51.606Z,88.60
2019-06-27T10:34:54.838Z,89.00
2019-06-27T10:37:57.963Z,89.10
2019-06-27T10:41:01.518Z,85.70
2019-06-27T10:44:04.727Z,86.70
2019-06-27T10:47:07.903Z,86.00
2019-06-27T10:50:11.390Z,90.10
2019-06-27T10:53:14.523Z,87.30
2019-06-27T10:56:17.676Z,83.80
2019-06-27T10:59:20.872Z,81.30
2019-06-27T11:02:24.181Z,83.30
2019-06-27T11:05:27.262Z,83.40
2019-06-27T11:08:30.897Z,83.00
2019-06-27T11:11:34.074Z,80.30
2019-06-27T11:14:37.364Z,79.20
2019-06-27T11:17:42.085Z,80.70
2019-06-27T11:20:45.233Z,82.30
2019-06-27T11:23:48.972Z,81.20
2019-06-27T11:26:52.031Z,81.80
2019-06-27T11:29:55.124Z,80.10
2019-06-27T11:32:58.248Z,79.30
2019-06-27T11:36:03.915Z,79.50
2019-06-27T11:39:07.478Z,75.50
2019-06-27T11:42:10.771Z,74.80
2019-06-27T11:45:16.282Z,74.90
2019-06-27T11:48:19.344Z,76.90
2019-06-27T11:51:22.628Z,78.00
2019-06-27T11:54:25.911Z,76.90
2019-06-27T11:57:30.744Z,76.90
2019-06-27T12:00:35.737Z,77.10
2019-06-27T12:03:49.378Z,75.20
2019-06-27T12:06:45.858Z,78.20
2019-06-27T12:09:49.177Z,79.60
2019-06-27T12:12:52.574Z,78.20
2019-06-27T12:15:58.041Z,78.20
2019-06-27T12:19:04.478Z,77.80
2019-06-27T12:22:10.363Z,79.30
2019-06-27T12:25:16.374Z,75.10
2019-06-27T12:28:19.648Z,76.80
2019-06-27T12:31:22.890Z,75.70
2019-06-27T12:34:26.094Z,77.70
2019-06-27T12:37:31.119Z,78.10
2019-06-27T12:40:34.255Z,75.40
2019-06-27T12:43:37.471Z,74.60
2019-06-27T12:46:40.745Z,74.10
2019-06-27T12:50:00.618Z,73.70
2019-06-27T12:52:49.840Z,75.20
2019-06-27T12:55:53.291Z,73.40
2019-06-27T12:58:56.492Z,72.50
2019-06-27T13:01:59.758Z,71.90
2019-06-27T13:05:02.985Z,72.80
2019-06-27T13:08:06.768Z,72.50
2019-06-27T13:11:09.908Z,73.20
2019-06-27T13:14:12.971Z,72.30
2019-06-27T13:17:16.050Z,71.60
2019-06-27T13:20:20.813Z,70.30
2019-06-27T13:23:25.654Z,69.60
2019-06-27T13:26:29.002Z,68.50
2019-06-27T13:29:32.122Z,68.50
2019-06-27T13:32:35.291Z,68.90
2019-06-27T13:35:38.520Z,69.00
2019-06-27T13:38:41.714Z,68.60
2019-06-27T13:41:45.099Z,67.70
2019-06-27T13:44:48.451Z,67.60
2019-06-27T13:47:51.776Z,69.20
2019-06-27T13:50:57.686Z,70.70
2019-06-27T13:54:00.010Z,68.40
2019-06-27T13:57:03.316Z,66.50
2019-06-27T14:00:06.967Z,66.80
2019-06-27T14:03:10.383Z,68.00
2019-06-27T14:06:13.510Z,68.90
2019-06-27T14:09:22.907Z,67.80
2019-06-27T14:12:21.614Z,67.80
2019-06-27T14:15:26.555Z,68.40
2019-06-27T14:18:31.347Z,68.40
2019-06-27T14:21:35.939Z,68.40
2019-06-27T14:24:39.161Z,67.80
2019-06-27T14:27:44.019Z,70.50
2019-06-27T14:30:47.195Z,69.60
2019-06-27T14:33:50.469Z,68.60
2019-06-27T14:36:54.518Z,69.20
2019-06-27T14:39:57.706Z,68.10
2019-06-27T14:43:01.027Z,67.70
2019-06-27T14:46:04.065Z,65.40
2019-06-27T14:49:07.151Z,65.50
2019-06-27T14:52:10.452Z,64.90
2019-06-27T14:55:14.850Z,65.20
2019-06-27T14:58:18.100Z,65.20
2019-06-27T15:01:21.168Z,65.20
2019-06-27T15:04:24.502Z,66.20
2019-06-27T15:07:27.718Z,65.90
2019-06-27T15:10:31.799Z,64.70
2019-06-27T15:13:34.875Z,65.10
2019-06-27T15:16:37.958Z,64.70
2019-06-27T15:19:41.251Z,66.70
2019-06-27T15:22:44.346Z,65.90
2019-06-27T15:25:47.553Z,67.40
2019-06-27T15:28:52.791Z,68.80
2019-06-27T15:31:55.976Z,69.10
2019-06-27T15:34:59.071Z,68.80
2019-06-27T15:38:02.026Z,70.20
2019-06-27T15:41:05.162Z,69.70
2019-06-27T15:44:08.256Z,69.60
2019-06-27T15:47:11.543Z,69.00
2019-06-27T15:50:14.827Z,69.30
2019-06-27T15:53:17.938Z,69.60
2019-06-27T15:56:21.172Z,70.20
2019-06-27T15:59:24.223Z,72.30
2019-06-27T16:02:27.925Z,73.60
2019-06-27T16:05:31.366Z,73.10
2019-06-27T16:08:34.747Z,73.20
2019-06-27T16:11:38.135Z,73.10
2019-06-27T16:14:41.328Z,73.00
2019-06-27T16:17:44.817Z,73.20
2019-06-27T16:20:48.028Z,72.50
2019-06-27T16:23:51.219Z,73.10
2019-06-27T16:26:54.462Z,72.80
2019-06-27T16:29:57.611Z,72.90
2019-06-27T16:33:00.715Z,72.10
2019-06-27T16:36:03.831Z,72.10
2019-06-27T16:39:07.111Z,74.40
2019-06-27T16:42:10.219Z,76.90
2019-06-27T16:45:13.381Z,78.00
2019-06-27T16:48:17.495Z,76.50
2019-06-27T16:51:20.802Z,74.90
2019-06-27T16:54:24.095Z,75.00
2019-06-27T16:57:27.451Z,77.70
2019-06-27T17:00:30.580Z,78.10
2019-06-27T17:03:35.359Z,78.80
2019-06-27T17:06:42.561Z,80.00
2019-06-27T17:09:43.866Z,80.40
2019-06-27T17:12:47.054Z,80.70
2019-06-27T17:15:53.496Z,82.10
2019-06-27T17:18:58.349Z,80.70
2019-06-27T17:22:03.234Z,80.80
2019-06-27T17:25:08.375Z,81.30
2019-06-27T17:28:11.879Z,82.90
2019-06-27T17:31:15.403Z,83.90
2019-06-27T17:34:18.190Z,84.50
2019-06-27T17:37:24.880Z,83.20
2019-06-27T17:40:30.739Z,83.50
2019-06-27T17:43:34.746Z,83.30
2019-06-27T17:46:38.347Z,85.70
2019-06-27T17:49:41.890Z,86.70
2019-06-27T17:52:45.096Z,89.20
2019-06-27T17:55:48.312Z,89.50
2019-06-27T17:58:51.652Z,90.30
2019-06-27T18:01:54.947Z,91.00
2019-06-27T18:04:58.027Z,91.40
2019-06-27T18:08:01.201Z,91.80
2019-06-27T18:11:04.311Z,92.30
2019-06-27T18:14:07.582Z,92.60
2019-06-27T18:17:10.707Z,92.70
2019-06-27T18:20:13.975Z,93.10
2019-06-27T18:23:17.075Z,93.90
2019-06-27T18:26:20.395Z,94.10
2019-06-27T18:29:23.537Z,94.20
2019-06-27T18:32:26.680Z,94.40
2019-06-27T18:35:29.554Z,94.60
2019-06-27T18:38:32.746Z,94.50
2019-06-27T18:41:37.597Z,94.70
2019-06-27T18:44:40.983Z,95.10
2019-06-27T18:47:43.883Z,95.50
2019-06-27T18:50:48.393Z,96.20
2019-06-27T18:53:53.291Z,96.10
2019-06-27T18:56:56.458Z,96.50
2019-06-27T19:00:01.498Z,96.90
2019-06-27T19:03:06.595Z,97.20
2019-06-27T19:06:09.800Z,97.40
2019-06-27T19:09:12.783Z,97.80
2019-06-27T19:12:19.093Z,98.10
2019-06-27T19:15:20.911Z,98.30
2019-06-27T19:18:41.803Z,98.50
2019-06-27T19:22:01.000Z,98.80
2019-06-27T19:25:10.086Z,99.10
2019-06-27T19:28:15.738Z,99.40
2019-06-27T19:31:19.533Z,99.80
2019-06-27T19:34:23.284Z,99.90
2019-06-27T19:37:38.759Z,99.90
2019-06-27T19:40:42.295Z,99.90
2019-06-27T19:43:46.185Z,99.90
2019-06-27T19:46:50.101Z,99.90
2019-06-27T19:49:54.629Z,99.90
2019-06-27T19:52:58.510Z,99.90
2019-06-27T19:56:03.986Z,99.90
2019-06-27T19:59:07.629Z,99.90
2019-06-27T20:02:11.440Z,99.90
2019-06-27T20:05:14.807Z,99.90
2019-06-27T20:08:20.111Z,99.90
2019-06-27T20:11:24.223Z,99.90
2019-06-27T20:14:28.573Z,99.90
2019-06-27T20:17:32.845Z,99.90
2019-06-27T20:20:36.750Z,99.90
2019-06-27T20:23:40.140Z,99.90
2019-06-27T20:26:44.140Z,99.90
2019-06-27T20:29:48.130Z,99.90
2019-06-27T20:32:51.726Z,99.90
2019-06-27T20:36:17.529Z,99.90
2019-06-27T20:39:21.488Z,99.90
2019-06-27T20:42:25.825Z,99.90
2019-06-27T20:45:29.910Z,99.90
2019-06-27T20:48:34.165Z,99.90
2019-06-27T20:51:39.475Z,99.90
2019-06-27T20:54:45.823Z,99.90
2019-06-27T20:57:49.643Z,99.90
2019-06-27T21:00:53.444Z,99.90
2019-06-27T21:03:57.552Z,99.90
2019-06-27T21:07:02.291Z,99.90
2019-06-27T21:10:08.474Z,99.90
2019-06-27T21:13:12.246Z,99.90
2019-06-27T21:16:15.885Z,99.90
2019-06-27T21:19:20.318Z,99.90
2019-06-27T21:22:24.411Z,99.90
2019-06-27T21:25:28.599Z,99.90
2019-06-27T21:28:32.462Z,99.90
2019-06-27T21:31:35.584Z,99.90
2019-06-27T21:34:39.028Z,99.90
2019-06-27T21:37:42.203Z,99.90
2019-06-27T21:40:46.156Z,99.90
2019-06-27T21:43:51.047Z,99.90
2019-06-27T21:46:54.111Z,99.90
2019-06-27T21:49:57.207Z,99.90
2019-06-27T21:53:00.535Z,99.90
2019-06-27T21:56:05.341Z,99.90
2019-06-27T21:59:08.564Z,99.90
2019-06-27T22:02:11.835Z,99.90
2019-06-27T22:05:15.327Z,99.90
2019-06-27T22:08:18.554Z,99.90
2019-06-27T22:11:21.739Z,99.90
2019-06-27T22:14:26.618Z,99.90
2019-06-27T22:17:30.679Z,99.90
2019-06-27T22:20:33.994Z,99.90
2019-06-27T22:23:39.272Z,99.90
2019-06-27T22:26:42.932Z,99.90
2019-06-27T22:29:46.230Z,99.90
2019-06-27T22:32:49.410Z,99.90
2019-06-27T22:35:52.706Z,99.90
2019-06-27T22:39:14.252Z,99.90
2019-06-27T22:42:35.658Z,99.90
2019-06-27T22:45:58.003Z,99.90
2019-06-27T22:49:00.735Z,99.90
2019-06-27T22:52:32.931Z,99.90
2019-06-27T22:55:37.485Z,99.90
2019-06-27T22:58:40.610Z,99.90
2019-06-27T23:01:43.925Z,99.90
2019-06-27T23:04:46.971Z,99.90
2019-06-27T23:07:50.181Z,99.90
2019-06-27T23:10:54.284Z,99.90
2019-06-27T23:13:57.270Z,99.90
2019-06-27T23:17:02.106Z,99.90
2019-06-27T23:20:05.571Z,99.90
2019-06-27T23:23:08.287Z,99.90
2019-06-27T23:26:12.801Z,99.90
2019-06-27T23:29:15.620Z,99.90
2019-06-27T23:32:18.402Z,99.90
2019-06-27T23:35:21.119Z,99.90
2019-06-27T23:39:37.504Z,99.90
2019-06-27T23:42:42.983Z,99.90
2019-06-27T23:45:46.038Z,99.90
2019-06-27T23:48:48.810Z,99.90
2019-06-27T23:51:52.669Z,99.90
2019-06-27T23:54:55.362Z,99.90
2019-06-27T23:57:58.115Z,99.90
